Time;durP1;ratioP1;P1;durP2;ratioP2;P2;SDS_P1;SDS_P2;PMS_P1;PMS_P2;Temp;Humidity;BMP_temperature;BMP_pressure;BME280_temperature;BME280_humidity;BME280_pressure;Samples;Min_cycle;Max_cycle;Signal;HPM_P1;HPM_P2
2022/06/28 00:02:07;;;;;;;7.10;6.03;;;15.80;99.90;;;;;;4939777;29;20277;-76
2022/06/28 00:04:32;;;;;;;6.30;5.20;;;15.80;99.90;;;;;;4956963;29;20190;-77
2022/06/28 00:06:58;;;;;;;7.90;6.17;;;15.70;99.90;;;;;;4956656;29;20328;-76
2022/06/28 00:09:25;;;;;;;8.23;7.17;;;15.60;99.90;;;;;;4957134;29;20260;-76
2022/06/28 00:11:51;;;;;;;7.33;6.40;;;15.60;99.90;;;;;;4956739;29;20225;-76
2022/06/28 00:17:01;;;;;;;8.30;5.93;;;15.60;99.90;;;;;;4957070;29;20514;-78
2022/06/28 00:19:27;;;;;;;7.43;6.73;;;15.60;99.90;;;;;;4956613;29;20438;-77
2022/06/28 00:21:53;;;;;;;8.40;6.87;;;15.60;99.90;;;;;;4956871;29;20225;-77
2022/06/28 00:24:19;;;;;;;7.90;6.83;;;15.60;99.90;;;;;;4956417;29;20457;-77
2022/06/28 00:26:45;;;;;;;10.30;6.53;;;15.60;99.90;;;;;;4956689;29;20268;-78
2022/06/28 00:29:11;;;;;;;7.27;6.57;;;15.60;99.90;;;;;;4956390;29;20550;-78
2022/06/28 00:31:37;;;;;;;7.90;5.90;;;15.60;99.90;;;;;;4956200;29;20509;-79
2022/06/28 00:34:03;;;;;;;8.77;6.47;;;15.60;99.90;;;;;;4956392;29;20190;-78
2022/06/28 00:36:29;;;;;;;10.20;6.00;;;15.60;99.90;;;;;;4956490;29;20213;-78
2022/06/28 00:38:54;;;;;;;5.77;5.20;;;15.60;99.90;;;;;;4956611;29;20524;-78
2022/06/28 00:41:20;;;;;;;7.17;6.47;;;15.60;99.90;;;;;;4956323;29;20688;-76
2022/06/28 00:43:46;;;;;;;7.70;5.40;;;15.60;99.90;;;;;;4956441;29;20669;-75
2022/06/28 00:46:11;;;;;;;7.70;5.27;;;15.60;99.90;;;;;;4955839;29;20277;-74
2022/06/28 00:48:37;;;;;;;7.87;6.10;;;15.60;99.90;;;;;;4955971;29;20521;-74
2022/06/28 00:51:03;;;;;;;10.70;7.07;;;15.50;99.90;;;;;;4956282;28;20214;-74
2022/06/28 00:53:29;;;;;;;6.27;5.63;;;15.50;99.90;;;;;;4956884;29;20469;-74
2022/06/28 00:55:54;;;;;;;5.60;5.10;;;15.50;99.90;;;;;;4956870;29;20186;-75
2022/06/28 00:58:20;;;;;;;5.33;4.80;;;15.50;99.90;;;;;;4956756;29;20182;-74
2022/06/28 01:00:48;;;;;;;7.40;6.00;;;15.40;99.90;;;;;;4939642;29;20225;-74
2022/06/28 01:03:17;;;;;;;7.90;5.47;;;15.40;99.90;;;;;;4956806;29;20210;-75
2022/06/28 01:05:43;;;;;;;6.60;5.23;;;15.40;99.90;;;;;;4956737;29;20422;-73
2022/06/28 01:08:10;;;;;;;6.40;5.70;;;15.40;99.90;;;;;;4956736;29;20777;-73
2022/06/28 01:10:36;;;;;;;6.90;5.23;;;15.40;99.90;;;;;;4956670;29;20433;-73
2022/06/28 01:13:03;;;;;;;6.00;5.40;;;15.30;99.90;;;;;;4956615;29;20430;-73
2022/06/28 01:15:30;;;;;;;6.13;5.50;;;15.40;99.90;;;;;;4939314;29;20430;-80
2022/06/28 01:17:58;;;;;;;6.83;6.20;;;15.40;99.90;;;;;;4956526;29;20537;-80
2022/06/28 01:20:25;;;;;;;7.70;6.53;;;15.30;99.90;;;;;;4956502;29;20458;-75
2022/06/28 01:22:52;;;;;;;9.43;6.87;;;15.30;99.90;;;;;;4956488;29;20796;-75
2022/06/28 04:32:19;;;;;;;11.70;9.47;;;15.10;99.90;;;;;;5112812;23;20536;-69
2022/06/28 04:34:45;;;;;;;11.13;9.83;;;15.20;99.90;;;;;;4956344;29;20441;-70
2022/06/28 04:37:10;;;;;;;10.33;9.33;;;15.20;99.90;;;;;;4956432;29;20578;-74
2022/06/28 04:39:36;;;;;;;12.80;10.60;;;15.20;99.90;;;;;;4956276;29;20616;-74
2022/06/28 04:42:02;;;;;;;10.63;9.20;;;15.30;99.90;;;;;;4938943;29;20217;-73
2022/06/28 04:44:28;;;;;;;10.83;9.80;;;15.40;99.90;;;;;;4956287;29;20226;-73
2022/06/28 04:46:54;;;;;;;13.50;10.47;;;15.40;99.90;;;;;;4956162;29;20479;-77
2022/06/28 04:49:19;;;;;;;14.87;10.57;;;15.50;99.90;;;;;;4955920;29;20988;-74
2022/06/28 04:51:45;;;;;;;14.30;11.30;;;15.60;99.90;;;;;;4956055;29;20182;-73
2022/06/28 04:54:10;;;;;;;11.63;10.00;;;15.60;99.90;;;;;;4956017;29;20175;-72
2022/06/28 04:56:36;;;;;;;11.37;10.17;;;15.70;99.90;;;;;;4956099;29;20194;-73
2022/06/28 04:59:01;;;;;;;10.10;9.10;;;15.70;99.90;;;;;;4955752;29;20185;-74
2022/06/28 05:01:27;;;;;;;11.13;9.33;;;15.80;99.90;;;;;;4955830;29;20226;-73
2022/06/28 05:03:52;;;;;;;11.70;8.93;;;15.80;99.90;;;;;;4955782;29;20222;-73
2022/06/28 05:06:18;;;;;;;13.83;9.00;;;15.90;99.90;;;;;;4955696;29;20217;-76
2022/06/28 05:08:43;;;;;;;10.47;8.13;;;16.00;99.90;;;;;;4955792;29;20185;-74
2022/06/28 05:11:09;;;;;;;12.33;8.33;;;16.10;99.90;;;;;;4955633;29;20217;-78
2022/06/28 05:13:35;;;;;;;10.20;8.93;;;16.20;99.90;;;;;;4955754;29;20185;-75
2022/06/28 05:16:01;;;;;;;10.63;8.13;;;16.30;99.90;;;;;;4955437;29;20638;-73
2022/06/28 05:18:26;;;;;;;8.50;7.47;;;16.40;99.90;;;;;;4955373;29;20473;-73
2022/06/28 05:20:52;;;;;;;9.70;8.70;;;16.50;99.90;;;;;;4955287;29;20218;-74
2022/06/28 05:23:18;;;;;;;11.30;8.30;;;16.60;99.90;;;;;;4954691;29;20178;-74
2022/06/28 05:25:43;;;;;;;8.60;7.27;;;16.70;99.90;;;;;;4955320;29;20185;-74
2022/06/28 05:28:09;;;;;;;8.20;7.30;;;16.80;99.90;;;;;;4955159;29;20190;-75
2022/06/28 05:30:34;;;;;;;9.20;6.43;;;16.90;99.90;;;;;;4955162;29;20182;-75
2022/06/28 05:33:02;;;;;;;9.10;6.23;;;16.90;99.90;;;;;;4954427;29;20198;-76
2022/06/28 05:35:28;;;;;;;8.83;6.83;;;17.10;99.90;;;;;;4935912;29;20265;-75
2022/06/28 05:37:54;;;;;;;8.70;6.57;;;17.20;99.90;;;;;;4947951;28;20494;-74
2022/06/28 05:40:19;;;;;;;7.10;6.40;;;17.30;99.90;;;;;;4934292;29;20710;-75
2022/06/28 05:42:45;;;;;;;7.13;6.30;;;17.40;99.90;;;;;;4937377;29;20198;-77
2022/06/28 05:45:11;;;;;;;7.77;6.40;;;17.50;99.90;;;;;;4938113;29;20187;-76
2022/06/28 05:47:36;;;;;;;11.83;7.10;;;17.60;99.90;;;;;;4955135;29;20182;-76
2022/06/28 05:50:02;;;;;;;7.80;6.83;;;17.70;99.90;;;;;;4954150;29;20423;-72
2022/06/28 05:52:27;;;;;;;8.50;7.50;;;17.80;99.90;;;;;;4954143;29;20182;-73
2022/06/28 05:54:53;;;;;;;9.73;6.97;;;18.00;99.90;;;;;;4953508;29;20174;-73
2022/06/28 05:57:18;;;;;;;7.13;5.77;;;18.10;99.90;;;;;;4954676;29;20186;-73
2022/06/28 05:59:44;;;;;;;10.27;6.40;;;18.20;99.90;;;;;;4954693;29;20174;-73
2022/06/28 06:02:10;;;;;;;6.53;4.80;;;18.30;99.90;;;;;;4954675;29;20313;-73
2022/06/28 06:04:35;;;;;;;6.63;5.90;;;18.30;99.90;;;;;;4954971;29;20229;-72
2022/06/28 06:07:01;;;;;;;12.80;6.97;;;18.40;99.90;;;;;;4954620;29;20183;-72
2022/06/28 06:09:26;;;;;;;7.17;4.63;;;18.50;99.90;;;;;;4954784;29;20206;-73
2022/06/28 06:11:52;;;;;;;8.13;5.43;;;18.60;99.90;;;;;;4954739;29;20186;-72
2022/06/28 06:14:17;;;;;;;5.30;4.40;;;18.60;99.90;;;;;;4954063;29;20202;-73
2022/06/28 06:16:44;;;;;;;9.77;4.50;;;18.70;99.90;;;;;;4953996;29;20167;-73
2022/06/28 06:19:09;;;;;;;6.70;4.00;;;18.80;99.90;;;;;;4954001;29;20261;-72
2022/06/28 06:21:35;;;;;;;8.17;4.33;;;18.80;99.90;;;;;;4954473;29;20973;-72
2022/06/28 06:24:00;;;;;;;6.43;4.13;;;18.90;99.90;;;;;;4954345;29;20221;-72
2022/06/28 06:26:26;;;;;;;6.00;4.10;;;19.00;99.90;;;;;;4954543;29;20242;-72
2022/06/28 06:28:51;;;;;;;4.13;3.40;;;19.00;99.90;;;;;;4953426;29;20167;-72
2022/06/28 06:31:17;;;;;;;5.53;3.10;;;19.10;99.90;;;;;;4954176;29;20226;-73
2022/06/28 06:33:43;;;;;;;8.33;4.37;;;19.20;99.90;;;;;;4954226;29;20174;-73
2022/06/28 06:36:08;;;;;;;5.40;3.63;;;19.30;99.90;;;;;;4954211;29;20529;-72
2022/06/28 06:38:34;;;;;;;6.30;3.20;;;19.30;99.90;;;;;;4954328;29;20206;-72
2022/06/28 06:40:59;;;;;;;5.87;2.77;;;19.40;99.90;;;;;;4953851;29;20218;-72
2022/06/28 06:43:26;;;;;;;10.30;3.70;;;19.50;99.90;;;;;;4954167;29;20181;-72
2022/06/28 06:45:53;;;;;;;4.37;3.97;;;19.70;99.90;;;;;;4954172;29;20182;-72
2022/06/28 06:48:18;;;;;;;3.50;2.87;;;19.70;99.90;;;;;;4953849;29;20434;-72
2022/06/28 06:50:44;;;;;;;5.30;3.00;;;19.70;99.90;;;;;;4954067;29;20437;-73
2022/06/28 06:53:10;;;;;;;5.03;3.27;;;19.70;99.90;;;;;;4953940;29;20290;-73
2022/06/28 06:55:36;;;;;;;8.40;3.60;;;19.70;99.90;;;;;;4953960;29;20226;-73
2022/06/28 06:58:02;;;;;;;6.63;3.67;;;19.80;99.90;;;;;;4953866;29;20414;-73
2022/06/28 07:00:27;;;;;;;3.93;3.10;;;19.90;99.90;;;;;;4953931;29;20643;-73
2022/06/28 07:02:53;;;;;;;4.50;2.83;;;20.10;99.90;;;;;;4953997;29;20178;-73
2022/06/28 07:05:18;;;;;;;3.10;2.80;;;20.10;99.90;;;;;;4954062;29;20182;-72
2022/06/28 07:07:44;;;;;;;4.20;2.67;;;20.20;99.90;;;;;;4953867;29;20214;-73
2022/06/28 07:10:10;;;;;;;5.80;2.90;;;20.30;99.90;;;;;;4953642;29;20174;-79
2022/06/28 07:12:35;;;;;;;6.07;2.90;;;20.30;99.90;;;;;;4950746;29;20443;-80
2022/06/28 07:15:01;;;;;;;4.43;2.40;;;20.40;99.90;;;;;;4950453;29;20178;-78
2022/06/28 07:17:26;;;;;;;6.53;2.30;;;20.40;99.90;;;;;;4944018;29;20317;-80
2022/06/28 07:19:52;;;;;;;5.77;2.80;;;20.30;99.90;;;;;;4935238;29;20186;-80
2022/06/28 07:22:17;;;;;;;4.90;2.77;;;20.40;99.90;;;;;;4934976;29;20202;-81
2022/06/28 07:24:43;;;;;;;9.77;2.57;;;20.40;99.90;;;;;;4931678;29;20948;-76
2022/06/28 07:27:08;;;;;;;6.50;2.83;;;20.50;99.90;;;;;;4935553;29;20626;-78
2022/06/28 07:29:34;;;;;;;3.47;2.47;;;20.40;99.90;;;;;;4947275;29;20265;-78
2022/06/28 07:31:59;;;;;;;4.30;1.90;;;20.50;99.90;;;;;;4953449;29;20226;-78
2022/06/28 07:34:25;;;;;;;3.30;1.47;;;20.50;99.90;;;;;;4953890;29;20556;-78
2022/06/28 07:36:51;;;;;;;2.00;1.30;;;20.40;99.90;;;;;;4954151;29;20183;-82
2022/06/28 07:39:18;;;;;;;2.80;1.77;;;20.40;99.90;;;;;;4954800;29;20185;-75
2022/06/28 07:41:43;;;;;;;7.53;2.13;;;20.40;99.90;;;;;;4953565;29;20218;-78
2022/06/28 07:44:09;;;;;;;6.67;1.53;;;20.40;99.90;;;;;;4954409;29;20492;-90
2022/06/28 07:46:34;;;;;;;5.00;1.87;;;20.40;99.90;;;;;;4953776;29;20189;-77
2022/06/28 07:49:00;;;;;;;4.20;1.60;;;20.40;99.90;;;;;;4953334;29;20174;-79
2022/06/28 07:54:10;;;;;;;4.63;1.70;;;20.30;99.90;;;;;;4953294;29;20589;-73
2022/06/28 07:56:36;;;;;;;4.80;1.97;;;20.30;99.90;;;;;;4954231;29;20422;-79
2022/06/28 07:59:02;;;;;;;1.77;1.57;;;20.40;99.90;;;;;;4954296;28;20273;-80
2022/06/28 08:01:27;;;;;;;6.93;1.77;;;20.50;99.90;;;;;;4956900;29;20260;-77
2022/06/28 08:03:53;;;;;;;16.53;2.13;;;20.50;99.90;;;;;;4957744;29;20521;-74
2022/06/28 08:06:19;;;;;;;2.67;1.50;;;20.50;99.90;;;;;;4957244;29;20595;-80
2022/06/28 08:08:44;;;;;;;2.77;1.67;;;20.60;99.90;;;;;;4957895;29;20563;-78
2022/06/28 08:11:10;;;;;;;2.37;1.53;;;20.60;99.90;;;;;;4957633;29;20225;-77
2022/06/28 08:13:37;;;;;;;3.63;1.80;;;20.60;99.90;;;;;;4957732;29;20175;-80
2022/06/28 08:16:03;;;;;;;3.20;1.73;;;20.60;99.90;;;;;;4957613;29;20206;-80
2022/06/28 08:18:29;;;;;;;8.00;1.70;;;20.70;99.90;;;;;;4957771;29;20438;-83
2022/06/28 08:20:54;;;;;;;2.17;1.20;;;20.70;99.90;;;;;;4957475;29;21063;-81
2022/06/28 08:23:20;;;;;;;5.43;1.90;;;20.70;99.90;;;;;;4957549;29;20253;-80
2022/06/28 08:25:46;;;;;;;3.00;1.50;;;20.70;99.90;;;;;;4957592;29;20186;-82
2022/06/28 08:28:13;;;;;;;3.60;1.30;;;20.70;99.90;;;;;;4957296;29;20206;-81
2022/06/28 08:30:40;;;;;;;4.03;1.93;;;20.70;99.90;;;;;;4956846;29;20474;-81
2022/06/28 08:33:05;;;;;;;3.30;1.47;;;20.90;99.90;;;;;;4957364;29;20532;-79
2022/06/28 08:35:31;;;;;;;3.23;1.60;;;20.90;99.90;;;;;;4957419;29;20513;-80
2022/06/28 08:37:56;;;;;;;6.23;1.50;;;20.90;99.90;;;;;;4957292;29;20181;-78
2022/06/28 08:40:25;;;;;;;2.77;1.57;;;20.90;99.90;;;;;;4957173;29;20214;-81
2022/06/28 08:42:53;;;;;;;7.63;1.60;;;20.90;99.90;;;;;;4957100;29;20265;-80
2022/06/28 08:45:20;;;;;;;4.07;2.00;;;21.10;99.90;;;;;;4957226;29;20430;-82
2022/06/28 08:47:49;;;;;;;3.40;1.63;;;21.00;99.90;;;;;;4957112;29;20430;-82
2022/06/28 08:50:23;;;;;;;2.73;1.60;;;21.20;99.90;;;;;;4957105;29;20437;-82
2022/06/28 08:52:49;;;;;;;4.73;1.60;;;21.30;99.90;;;;;;4957068;29;20525;-80
2022/06/28 08:55:15;;;;;;;3.23;1.30;;;21.40;99.90;;;;;;4956858;29;20855;-80
2022/06/28 08:57:42;;;;;;;4.47;2.00;;;21.30;99.90;;;;;;4956924;29;20473;-81
2022/06/28 09:00:09;;;;;;;2.60;1.73;;;21.40;99.90;;;;;;4956723;29;20421;-81
2022/06/28 09:02:35;;;;;;;4.20;1.57;;;21.50;99.90;;;;;;4956147;29;21006;-81
2022/06/28 09:05:01;;;;;;;4.10;2.10;;;21.50;99.90;;;;;;4956686;29;20569;-84
2022/06/28 09:07:28;;;;;;;3.53;1.80;;;21.50;99.90;;;;;;4956784;29;20555;-73
2022/06/28 09:09:54;;;;;;;4.77;2.30;;;21.50;99.90;;;;;;4956672;29;20434;-73
2022/06/28 09:12:20;;;;;;;4.00;1.83;;;21.60;99.90;;;;;;4956464;28;20445;-72
2022/06/28 09:14:46;;;;;;;1.70;1.60;;;21.70;99.90;;;;;;4956702;29;20189;-72
2022/06/28 09:17:24;;;;;;;3.13;1.63;;;21.80;99.90;;;;;;4956457;29;20186;-72
2022/06/28 09:19:55;;;;;;;3.90;1.73;;;21.90;99.90;;;;;;4956520;29;20421;-72
2022/06/28 09:22:39;;;;;;;3.10;1.30;;;22.00;99.90;;;;;;4956495;29;20482;-70
2022/06/28 09:25:11;;;;;;;3.50;1.77;;;22.00;99.90;;;;;;4939199;29;20894;-72
2022/06/28 09:27:38;;;;;;;3.30;1.40;;;22.20;99.90;;;;;;4956457;29;20427;-73
2022/06/28 09:30:07;;;;;;;6.07;2.97;;;22.20;99.90;;;;;;4956260;29;20438;-72
2022/06/28 09:32:35;;;;;;;5.47;1.80;;;22.30;99.90;;;;;;4955651;29;20534;-72
2022/06/28 09:35:09;;;;;;;4.87;1.60;;;22.40;99.90;;;;;;4956108;29;20470;-72
2022/06/28 09:37:52;;;;;;;2.03;1.47;;;22.40;99.90;;;;;;4956148;29;20821;-72
2022/06/28 09:40:26;;;;;;;4.53;2.00;;;22.40;99.90;;;;;;4955968;29;20493;-72
2022/06/28 09:43:15;;;;;;;3.10;1.93;;;22.40;99.90;;;;;;4956011;29;20446;-72
2022/06/28 09:45:50;;;;;;;4.17;2.20;;;22.40;99.90;;;;;;4956000;29;20426;-72
2022/06/28 09:48:17;;;;;;;10.00;2.70;;;22.50;99.90;;;;;;4956019;29;20429;-73
2022/06/28 09:50:43;;;;;;;4.60;1.90;;;22.60;99.90;;;;;;4955907;29;20466;-73
2022/06/28 09:53:13;;;;;;;2.80;1.83;;;22.70;99.90;;;;;;4938609;29;20446;-72
2022/06/28 09:55:39;;;;;;;3.30;1.93;;;22.80;99.90;;;;;;4955908;29;20277;-73
2022/06/28 09:58:05;;;;;;;2.93;1.80;;;22.80;99.90;;;;;;4955643;29;20430;-72
2022/06/28 10:00:34;;;;;;;3.60;2.00;;;22.80;99.90;;;;;;4955792;29;20462;-73
2022/06/28 10:02:59;;;;;;;3.80;1.40;;;22.80;99.90;;;;;;4955408;29;20175;-73
2022/06/28 10:05:26;;;;;;;6.27;1.70;;;22.90;99.90;;;;;;4955529;29;20485;-73
2022/06/28 10:07:52;;;;;;;4.57;2.80;;;23.00;99.90;;;;;;4955174;29;20186;-73
2022/06/28 10:10:20;;;;;;;3.37;1.77;;;23.00;99.90;;;;;;4955673;29;20494;-73
2022/06/28 10:15:36;;;;;;;3.43;1.67;;;23.10;99.90;;;;;;4955600;29;20484;-73
2022/06/28 10:18:24;;;;;;;5.23;1.97;;;23.20;99.90;;;;;;4954701;29;20546;-74
2022/06/28 10:20:49;;;;;;;3.63;1.50;;;23.10;99.90;;;;;;4951358;29;20462;-73
2022/06/28 10:23:40;;;;;;;3.90;1.40;;;23.10;99.90;;;;;;4954301;28;20522;-73
2022/06/28 10:26:11;;;;;;;3.40;1.50;;;23.20;99.90;;;;;;4953196;29;20174;-73
2022/06/28 10:28:39;;;;;;;5.47;1.70;;;23.30;99.60;;;;;;4955280;29;20849;-73
2022/06/28 10:31:23;;;;;;;5.53;1.83;;;23.40;98.70;;;;;;4955010;29;20553;-73
2022/06/28 10:33:57;;;;;;;2.33;1.40;;;23.50;97.60;;;;;;4954530;29;20489;-73
2022/06/28 10:36:25;;;;;;;4.93;1.43;;;23.60;99.90;;;;;;4953570;29;20766;-73
2022/06/28 10:39:09;;;;;;;4.10;1.50;;;23.60;97.00;;;;;;4954758;29;20868;-73
2022/06/28 10:41:37;;;;;;;1.77;1.20;;;23.70;94.10;;;;;;4954885;29;20508;-73
2022/06/28 10:44:28;;;;;;;2.90;1.20;;;23.80;95.60;;;;;;4954839;29;20438;-86
2022/06/28 10:47:06;;;;;;;1.53;1.00;;;23.80;96.30;;;;;;4955330;29;20445;-84
2022/06/28 10:49:44;;;;;;;3.77;1.30;;;23.80;90.50;;;;;;4953664;29;20616;-83
2022/06/28 10:52:23;;;;;;;2.70;1.30;;;23.60;85.20;;;;;;4952761;29;20788;-85
2022/06/28 10:54:51;;;;;;;5.07;1.40;;;23.40;89.90;;;;;;4954939;29;20418;-83
2022/06/28 10:57:33;;;;;;;1.67;1.10;;;23.20;90.70;;;;;;4954732;29;20430;-83
2022/06/28 11:00:23;;;;;;;1.50;1.40;;;23.10;91.20;;;;;;4954370;29;20517;-82
2022/06/28 11:02:51;;;;;;;4.50;1.97;;;23.10;93.30;;;;;;4941171;29;20541;-80
2022/06/28 11:05:19;;;;;;;3.30;1.50;;;23.40;91.50;;;;;;4956012;29;20957;-87
2022/06/28 11:07:59;;;;;;;3.60;1.60;;;23.50;91.20;;;;;;4957583;29;20861;-85
2022/06/28 11:10:26;;;;;;;4.03;1.50;;;23.50;90.90;;;;;;4963346;29;20517;-84
2022/06/28 11:12:52;;;;;;;2.33;1.57;;;23.60;85.00;;;;;;4955809;29;20484;-83
2022/06/28 11:15:32;;;;;;;4.23;1.90;;;23.60;85.90;;;;;;4955089;29;20936;-82
2022/06/28 11:17:59;;;;;;;4.60;1.57;;;23.80;89.30;;;;;;4953713;29;20493;-82
2022/06/28 11:20:25;;;;;;;2.53;1.13;;;23.90;92.10;;;;;;4953589;29;20996;-82
2022/06/28 11:22:52;;;;;;;2.30;1.20;;;24.00;86.70;;;;;;4954887;29;20442;-82
2022/06/28 11:27:19;;;;;;;4.40;1.17;;;24.00;85.80;;;;;;4954752;29;20430;-82
2022/06/28 11:28:11;;;;;;;2.50;1.33;;;24.10;84.70;;;;;;4954729;29;20976;-82
2022/06/28 11:30:42;;;;;;;3.87;1.47;;;24.20;82.20;;;;;;4954113;29;20490;-81
2022/06/28 11:33:08;;;;;;;1.93;1.27;;;24.30;84.00;;;;;;4954694;29;20667;-82
2022/06/28 11:35:34;;;;;;;3.03;1.30;;;24.40;83.00;;;;;;4956172;28;20430;-82
2022/06/28 11:38:06;;;;;;;2.53;1.47;;;24.30;83.90;;;;;;4958386;29;20520;-81
2022/06/28 11:40:44;;;;;;;6.07;2.20;;;24.30;90.60;;;;;;4958460;29;20492;-82
2022/06/28 11:43:10;;;;;;;2.17;1.30;;;24.50;87.60;;;;;;4958258;29;20445;-81
2022/06/28 11:45:45;;;;;;;2.13;1.30;;;24.50;78.80;;;;;;4958193;29;20430;-81
2022/06/28 11:48:22;;;;;;;2.90;1.30;;;24.60;77.60;;;;;;4958219;29;20437;-81
2022/06/28 11:50:47;;;;;;;1.50;1.10;;;24.60;85.50;;;;;;4958223;29;20449;-82
2022/06/28 11:53:14;;;;;;;1.83;1.37;;;24.60;81.90;;;;;;4958080;29;20925;-81
2022/06/28 11:55:51;;;;;;;4.20;1.57;;;24.70;84.50;;;;;;4957886;29;20642;-82
2022/06/28 11:58:18;;;;;;;1.90;1.40;;;24.90;90.00;;;;;;4958065;29;20946;-82
2022/06/28 12:01:15;;;;;;;2.07;1.10;;;25.00;88.00;;;;;;4957934;29;20548;-81
2022/06/28 12:03:43;;;;;;;2.90;1.00;;;25.20;73.60;;;;;;4957935;29;20440;-81
2022/06/28 12:06:19;;;;;;;3.20;1.33;;;25.00;71.90;;;;;;4940687;29;20426;-81
2022/06/28 12:08:53;;;;;;;3.97;1.50;;;24.90;72.60;;;;;;4957851;29;20472;-81
2022/06/28 12:11:35;;;;;;;2.80;1.53;;;24.70;78.80;;;;;;4957836;29;20426;-80
2022/06/28 12:14:06;;;;;;;4.13;1.77;;;24.90;74.60;;;;;;4957740;29;20430;-80
2022/06/28 12:17:11;;;;;;;1.70;1.13;;;24.80;76.20;;;;;;4957765;29;20425;-80
2022/06/28 12:19:41;;;;;;;1.93;1.27;;;25.00;72.90;;;;;;4879827;29;20528;-80
2022/06/28 12:22:12;;;;;;;5.03;1.67;;;25.00;71.00;;;;;;4879680;29;20614;-79
2022/06/28 12:24:38;;;;;;;3.77;1.90;;;25.20;75.10;;;;;;4904103;29;20430;-80
2022/06/28 12:27:04;;;;;;;1.53;1.43;;;25.30;73.40;;;;;;4957009;29;20564;-82
2022/06/28 12:29:29;;;;;;;2.17;1.60;;;25.20;72.50;;;;;;4957451;29;20422;-78
2022/06/28 12:31:55;;;;;;;3.83;1.83;;;25.20;75.50;;;;;;4957130;29;20236;-86
2022/06/28 12:34:20;;;;;;;1.80;1.23;;;25.20;76.20;;;;;;4957397;29;20610;-88
2022/06/28 12:36:46;;;;;;;2.77;1.10;;;25.30;73.10;;;;;;4957602;29;20266;-88
2022/06/28 12:39:11;;;;;;;4.70;1.17;;;25.50;74.50;;;;;;4957242;29;20167;-84
2022/06/28 12:41:37;;;;;;;4.17;1.40;;;25.50;78.90;;;;;;4956862;29;20202;-84
2022/06/28 12:44:03;;;;;;;4.57;1.80;;;25.70;72.40;;;;;;4957004;29;20179;-85
2022/06/28 12:46:28;;;;;;;3.50;1.57;;;25.40;69.40;;;;;;4956547;28;20704;-83
2022/06/28 12:48:54;;;;;;;5.67;1.30;;;25.50;67.40;;;;;;4956970;29;20670;-86
2022/06/28 12:51:20;;;;;;;4.43;1.50;;;25.70;69.10;;;;;;4957035;29;20174;-84
2022/06/28 12:53:45;;;;;;;4.60;2.10;;;25.60;70.00;;;;;;4956882;29;20546;-82
2022/06/28 12:56:12;;;;;;;3.17;1.30;;;25.70;66.00;;;;;;4956537;29;20439;-83
2022/06/28 12:58:37;;;;;;;2.20;1.47;;;25.90;65.10;;;;;;4956953;29;20202;-85
2022/06/28 13:01:03;;;;;;;3.40;1.90;;;25.90;69.50;;;;;;4956064;29;20973;-85
2022/06/28 13:03:29;;;;;;;3.03;1.60;;;26.00;66.80;;;;;;4956359;29;20171;-84
2022/06/28 13:05:55;;;;;;;3.20;1.73;;;26.00;65.30;;;;;;4955911;29;20186;-85
2022/06/28 13:08:20;;;;;;;3.65;1.30;;;26.10;70.20;;;;;;4955425;29;20483;-81
2022/06/28 13:10:46;;;;;;;6.20;1.50;;;26.30;65.60;;;;;;4955904;29;20178;-80
2022/06/28 13:13:12;;;;;;;3.30;1.40;;;26.40;64.60;;;;;;4955572;29;20576;-82
2022/06/28 13:15:38;;;;;;;2.03;1.40;;;26.50;60.20;;;;;;4956327;29;20537;-77
2022/06/28 13:18:03;;;;;;;2.57;1.30;;;26.40;65.10;;;;;;4956208;29;20642;-80
2022/06/28 13:20:29;;;;;;;2.30;1.57;;;26.40;63.40;;;;;;4956262;29;20250;-77
2022/06/28 13:22:55;;;;;;;2.57;1.40;;;26.40;62.80;;;;;;4956390;29;20642;-75
2022/06/28 13:25:20;;;;;;;5.50;1.40;;;26.50;62.20;;;;;;4955546;29;20183;-75
2022/06/28 13:27:46;;;;;;;2.43;1.60;;;26.60;63.70;;;;;;4954753;29;20265;-75
2022/06/28 13:30:13;;;;;;;4.30;1.47;;;26.50;61.00;;;;;;4954983;29;20170;-77
2022/06/28 13:32:38;;;;;;;2.20;1.50;;;26.60;63.30;;;;;;4954882;29;20229;-76
2022/06/28 13:35:05;;;;;;;3.00;1.60;;;26.70;61.10;;;;;;4954803;29;20438;-76
2022/06/28 13:37:31;;;;;;;4.43;1.60;;;26.80;60.80;;;;;;4954691;29;20174;-76
2022/06/28 13:39:56;;;;;;;2.00;1.40;;;27.00;58.90;;;;;;4954898;29;20476;-77
2022/06/28 13:42:22;;;;;;;1.50;1.27;;;27.00;58.40;;;;;;4954433;29;20572;-77
2022/06/28 13:44:48;;;;;;;2.70;1.40;;;27.00;60.40;;;;;;4954687;29;20262;-76
2022/06/28 13:47:14;;;;;;;4.27;1.57;;;27.10;62.40;;;;;;4954991;29;20194;-78
2022/06/28 13:49:40;;;;;;;3.20;1.40;;;27.20;59.70;;;;;;4954729;29;20213;-76
2022/06/28 13:52:08;;;;;;;2.30;1.70;;;27.30;59.10;;;;;;4954537;29;20446;-76
2022/06/28 13:54:33;;;;;;;2.20;1.20;;;27.30;57.20;;;;;;4954823;29;20438;-82
2022/06/28 13:56:59;;;;;;;4.50;1.50;;;27.20;58.90;;;;;;4954137;28;20803;-80
2022/06/28 13:59:24;;;;;;;2.47;1.90;;;27.10;57.50;;;;;;4955895;29;20717;-78
2022/06/28 14:01:50;;;;;;;12.63;2.20;;;27.20;58.20;;;;;;4954342;29;20214;-81
2022/06/28 14:04:16;;;;;;;2.43;1.43;;;27.20;62.10;;;;;;4954445;29;20567;-78
2022/06/28 14:06:42;;;;;;;1.67;1.23;;;27.30;59.90;;;;;;4954371;29;20241;-76
2022/06/28 14:09:07;;;;;;;2.30;1.57;;;27.30;60.10;;;;;;4951986;29;20430;-82
2022/06/28 14:11:33;;;;;;;2.33;1.30;;;27.40;56.80;;;;;;4955829;29;20186;-82
2022/06/28 14:13:58;;;;;;;2.00;1.20;;;27.40;56.60;;;;;;4955592;29;20182;-81
2022/06/28 14:16:24;;;;;;;2.77;1.40;;;27.50;56.70;;;;;;4955231;29;20194;-79
2022/06/28 14:18:49;;;;;;;1.57;1.43;;;27.40;56.30;;;;;;4955073;29;20182;-80
2022/06/28 14:21:15;;;;;;;1.30;1.10;;;27.20;56.30;;;;;;4938172;29;20575;-79
2022/06/28 14:23:40;;;;;;;5.47;1.50;;;27.10;58.90;;;;;;4955519;29;20241;-78
2022/06/28 14:26:06;;;;;;;2.03;1.10;;;27.10;58.10;;;;;;4955335;29;20685;-77
2022/06/28 14:28:32;;;;;;;3.87;1.70;;;27.10;58.10;;;;;;4955518;29;20175;-78
2022/06/28 14:30:58;;;;;;;2.23;1.43;;;27.00;57.00;;;;;;4955052;29;20261;-78
2022/06/28 14:33:24;;;;;;;1.57;1.13;;;27.10;57.60;;;;;;4955546;29;20658;-82
2022/06/28 14:35:49;;;;;;;2.67;1.40;;;27.20;60.40;;;;;;4955272;29;20448;-80
2022/06/28 14:38:17;;;;;;;2.33;1.73;;;27.30;57.60;;;;;;4955783;29;20186;-80
2022/06/28 14:40:42;;;;;;;2.40;1.30;;;27.30;58.60;;;;;;4956170;29;20285;-81
2022/06/28 14:43:08;;;;;;;4.13;2.00;;;27.30;56.70;;;;;;4956004;29;20759;-79
2022/06/28 14:45:34;;;;;;;2.93;1.60;;;27.30;58.40;;;;;;4955611;29;20225;-73
2022/06/28 14:47:59;;;;;;;4.13;1.33;;;27.40;57.10;;;;;;4954832;29;20179;-80
2022/06/28 14:50:25;;;;;;;3.63;2.10;;;27.50;58.90;;;;;;4954630;29;20193;-74
2022/06/28 14:52:51;;;;;;;1.70;1.50;;;27.60;57.90;;;;;;4954487;29;20719;-72
2022/06/28 14:55:17;;;;;;;1.43;1.30;;;27.50;56.80;;;;;;4954646;29;20175;-73
2022/06/28 14:57:43;;;;;;;3.73;1.60;;;27.60;54.90;;;;;;4954543;29;20182;-73
2022/06/28 15:00:09;;;;;;;5.07;1.57;;;27.60;56.00;;;;;;4954472;29;20518;-72
2022/06/28 15:02:36;;;;;;;4.67;1.70;;;27.60;55.60;;;;;;4954575;29;20613;-73
2022/06/28 15:05:03;;;;;;;4.47;1.53;;;27.50;56.80;;;;;;4954912;29;20430;-73
2022/06/28 15:07:28;;;;;;;6.83;1.73;;;27.40;55.20;;;;;;4954874;29;20458;-74
2022/06/28 15:09:54;;;;;;;1.53;1.43;;;27.30;56.10;;;;;;4955575;28;20846;-74
2022/06/28 15:12:19;;;;;;;2.10;1.37;;;27.50;56.00;;;;;;4957937;29;20183;-73
2022/06/28 15:14:45;;;;;;;3.87;1.90;;;27.50;55.20;;;;;;4958652;29;20225;-73
2022/06/28 15:17:11;;;;;;;4.47;1.77;;;27.60;54.70;;;;;;4958072;29;20174;-74
2022/06/28 15:19:36;;;;;;;3.93;1.50;;;27.60;54.50;;;;;;4941350;29;20219;-73
2022/06/28 15:32:59;;;;;;;3.17;1.73;;;27.60;55.20;;;;;;4958492;29;20457;-73
2022/06/28 15:35:25;;;;;;;3.37;1.97;;;27.60;54.40;;;;;;4958535;29;20800;-73
2022/06/28 15:37:51;;;;;;;1.93;1.60;;;27.70;54.10;;;;;;4958090;29;20642;-72
2022/06/28 15:40:16;;;;;;;3.07;1.40;;;27.70;54.00;;;;;;4957892;29;20434;-72
2022/06/28 15:42:42;;;;;;;4.23;1.20;;;27.60;53.10;;;;;;4958294;29;20186;-72
2022/06/28 15:45:08;;;;;;;3.03;1.77;;;27.20;53.40;;;;;;4958054;29;20212;-72
2022/06/28 15:47:33;;;;;;;4.30;2.03;;;26.90;54.80;;;;;;4958256;29;20252;-73
2022/06/28 15:49:59;;;;;;;1.50;1.10;;;26.70;54.10;;;;;;4957933;29;20964;-71
2022/06/28 15:52:25;;;;;;;5.73;1.40;;;26.50;54.50;;;;;;4956571;29;20189;-82
2022/06/28 15:54:50;;;;;;;1.30;1.20;;;26.30;55.10;;;;;;4956670;29;20178;-74
2022/06/28 15:57:16;;;;;;;4.50;1.57;;;26.10;54.50;;;;;;4956848;29;20237;-74
2022/06/28 15:59:41;;;;;;;2.23;1.43;;;26.00;56.30;;;;;;4956918;29;20185;-74
2022/06/28 16:02:07;;;;;;;2.47;1.10;;;25.80;55.70;;;;;;4956816;29;20232;-75
2022/06/28 16:04:33;;;;;;;3.13;1.60;;;25.80;57.20;;;;;;4956755;29;20182;-77
2022/06/28 16:06:59;;;;;;;2.70;1.53;;;25.80;55.70;;;;;;4956923;29;20197;-78
2022/06/28 16:09:25;;;;;;;3.90;1.43;;;25.70;57.40;;;;;;4958307;29;20473;-75
2022/06/28 16:12:51;;;;;;;7.33;2.53;;;25.70;56.20;;;;;;4956730;29;20505;-75
2022/06/28 16:14:37;;;;;;;4.47;1.80;;;25.70;59.50;;;;;;4956485;29;20201;-76